createdAt,value
2018-02-24T00:00:04.280Z,18.83
2018-02-24T00:02:30.496Z,28.50
2018-02-24T00:04:56.715Z,32.30
2018-02-24T00:07:22.912Z,25.63
2018-02-24T00:09:49.144Z,14.90
2018-02-24T00:12:16.081Z,33.30
2018-02-24T00:14:42.350Z,29.77
2018-02-24T00:17:09.281Z,30.87
2018-02-24T00:19:36.211Z,28.90
2018-02-24T00:22:03.173Z,22.10
2018-02-24T00:24:30.108Z,37.03
2018-02-24T00:26:57.068Z,27.53
2018-02-24T00:29:23.260Z,22.00
2018-02-24T00:31:50.955Z,17.03
2018-02-24T00:34:17.888Z,32.33
2018-02-24T00:36:44.860Z,32.23
2018-02-24T00:39:11.111Z,37.20
2018-02-24T00:41:37.305Z,21.67
2018-02-24T00:44:04.260Z,27.47
2018-02-24T00:46:37.572Z,27.30
2018-02-24T00:49:03.816Z,16.47
2018-02-24T00:51:30.020Z,34.03
2018-02-24T00:53:56.297Z,34.87
2018-02-24T00:56:22.505Z,36.50
2018-02-24T00:58:48.740Z,44.37
2018-02-24T01:01:14.961Z,21.90
2018-02-24T01:03:41.196Z,24.93
2018-02-24T01:06:07.404Z,31.13
2018-02-24T01:08:33.632Z,28.53
2018-02-24T01:10:59.839Z,27.57
2018-02-24T01:13:26.776Z,25.13
2018-02-24T01:15:53.732Z,31.17
2018-02-24T01:18:20.659Z,25.70
2018-02-24T01:20:47.640Z,35.57
2018-02-24T01:23:13.848Z,25.13
2018-02-24T01:25:40.805Z,29.77
2018-02-24T01:28:07.016Z,24.10
2018-02-24T01:30:33.966Z,34.23
2018-02-24T01:33:00.905Z,22.47
2018-02-24T01:35:27.888Z,42.00
2018-02-24T01:37:54.101Z,22.57
2018-02-24T01:40:20.313Z,28.30
2018-02-24T01:42:47.245Z,25.73
2018-02-24T01:45:13.464Z,14.47
2018-02-24T01:47:41.132Z,34.17
2018-02-24T01:50:08.799Z,28.60
2018-02-24T01:52:35.012Z,18.90
2018-02-24T01:55:01.208Z,28.20
2018-02-24T01:57:27.424Z,22.00
2018-02-24T01:59:53.612Z,27.20
2018-02-24T02:02:19.819Z,26.50
2018-02-24T02:04:46.003Z,14.93
2018-02-24T02:07:12.216Z,15.40
2018-02-24T02:09:39.736Z,17.53
2018-02-24T02:12:07.291Z,27.33
2018-02-24T02:14:33.480Z,24.07
2018-02-24T02:16:59.700Z,14.33
2018-02-24T02:19:26.637Z,22.27
2018-02-24T02:21:53.622Z,22.30
2018-02-24T02:24:19.851Z,18.93
2018-02-24T02:26:46.045Z,27.97
2018-02-24T02:29:13.153Z,21.30
2018-02-24T02:31:46.413Z,22.83
2018-02-24T02:34:12.633Z,13.83
2018-02-24T02:36:38.852Z,40.47
2018-02-24T02:39:05.776Z,23.73
2018-02-24T02:41:32.029Z,22.47
2018-02-24T02:43:58.232Z,23.73
2018-02-24T02:46:24.453Z,18.50
2018-02-24T02:48:52.128Z,15.70
2018-02-24T02:51:19.090Z,30.07
2018-02-24T02:53:45.288Z,15.47
2018-02-24T02:56:12.332Z,19.63
2018-02-24T02:58:38.993Z,20.73
2018-02-24T03:01:05.956Z,23.80
2018-02-24T03:03:32.416Z,25.50
2018-02-24T03:05:58.951Z,23.20
2018-02-24T03:08:25.139Z,18.90
2018-02-24T03:10:52.128Z,34.87
2018-02-24T03:13:18.338Z,19.37
2018-02-24T03:15:44.564Z,12.40
2018-02-24T03:18:10.756Z,11.53
2018-02-24T03:20:37.739Z,15.70
2018-02-24T03:23:03.943Z,16.57
2018-02-24T03:25:30.183Z,22.50
2018-02-24T03:27:57.120Z,16.97
2018-02-24T03:30:24.547Z,18.43
2018-02-24T03:32:50.740Z,13.30
2018-02-24T03:35:16.932Z,21.17
2018-02-24T03:37:43.892Z,22.43
2018-02-24T03:40:10.824Z,14.53
2018-02-24T03:42:37.800Z,25.40
2018-02-24T03:45:04.007Z,7.03
2018-02-24T03:47:30.984Z,13.13
2018-02-24T03:49:57.204Z,14.50
2018-02-24T03:52:23.429Z,20.30
2018-02-24T03:54:49.649Z,17.63
2018-02-24T03:57:15.900Z,10.37
2018-02-24T03:59:42.093Z,24.90
2018-02-24T04:02:09.056Z,23.97
2018-02-24T04:04:36.060Z,10.30
2018-02-24T04:07:02.300Z,15.83
2018-02-24T04:09:29.296Z,8.60
2018-02-24T04:11:55.532Z,10.67
2018-02-24T04:14:21.744Z,12.20
2018-02-24T04:16:47.968Z,10.13
2018-02-24T04:19:14.163Z,24.50
2018-02-24T04:21:48.916Z,12.87
2018-02-24T04:24:15.853Z,9.00
2018-02-24T04:26:42.812Z,17.40
2018-02-24T04:29:09.735Z,13.40
2018-02-24T04:31:36.729Z,15.33
2018-02-24T04:34:02.924Z,13.90
2018-02-24T04:36:29.939Z,11.30
2018-02-24T04:38:56.133Z,32.53
2018-02-24T04:41:22.361Z,11.77
2018-02-24T04:43:48.548Z,15.27
2018-02-24T04:46:14.764Z,31.30
2018-02-24T04:48:40.952Z,11.97
2018-02-24T04:51:07.183Z,16.53
2018-02-24T04:53:33.367Z,21.63
2018-02-24T04:56:00.456Z,19.13
2018-02-24T04:58:26.644Z,14.43
2018-02-24T05:00:53.605Z,16.53
2018-02-24T05:03:20.540Z,17.50
2018-02-24T05:05:47.500Z,13.50
2018-02-24T05:08:14.433Z,23.50
2018-02-24T05:10:41.434Z,25.37
2018-02-24T05:13:08.008Z,21.73
2018-02-24T05:15:34.220Z,20.30
2018-02-24T05:18:00.408Z,16.37
2018-02-24T05:20:26.636Z,24.60
2018-02-24T05:22:52.820Z,12.40
2018-02-24T05:25:19.041Z,23.40
2018-02-24T05:27:46.708Z,16.60
2018-02-24T05:30:12.931Z,19.90
2018-02-24T05:32:40.599Z,23.83
2018-02-24T05:35:06.820Z,16.77
2018-02-24T05:37:33.004Z,27.33
2018-02-24T05:39:59.284Z,23.33
2018-02-24T05:42:26.217Z,16.97
2018-02-24T05:44:52.436Z,16.90
2018-02-24T05:47:18.952Z,12.87
2018-02-24T05:49:45.232Z,22.03
2018-02-24T05:52:11.421Z,24.00
2018-02-24T05:54:37.637Z,23.10
2018-02-24T05:57:03.828Z,17.73
2018-02-24T05:59:30.780Z,20.90
2018-02-24T06:01:57.735Z,29.80
2018-02-24T06:04:23.964Z,23.50
2018-02-24T06:06:50.152Z,24.03
2018-02-24T06:09:17.293Z,17.07
2018-02-24T06:11:43.509Z,18.57
2018-02-24T06:14:09.696Z,16.80
2018-02-24T06:16:42.888Z,11.97
2018-02-24T06:19:09.816Z,29.43
2018-02-24T06:21:36.796Z,15.17
2018-02-24T06:24:02.984Z,18.03
2018-02-24T06:26:29.223Z,20.87
2018-02-24T06:28:56.160Z,24.07
2018-02-24T06:31:22.383Z,21.60
2018-02-24T06:33:48.567Z,23.53
2018-02-24T06:36:14.804Z,18.03
2018-02-24T06:38:41.017Z,26.63
2018-02-24T06:41:07.317Z,25.97
2018-02-24T06:43:34.272Z,23.40
2018-02-24T06:46:01.244Z,15.43
2018-02-24T06:48:27.438Z,24.80
2018-02-24T06:50:54.392Z,30.97
2018-02-24T06:53:21.319Z,29.87
2018-02-24T06:55:47.536Z,29.47
2018-02-24T06:58:13.725Z,19.43
2018-02-24T07:00:39.948Z,10.53
2018-02-24T07:03:06.140Z,34.30
2018-02-24T07:05:33.095Z,33.77
2018-02-24T07:08:00.037Z,23.03
2018-02-24T07:10:26.997Z,20.33
2018-02-24T07:12:53.288Z,25.93
2018-02-24T07:15:20.988Z,26.13
2018-02-24T07:17:47.912Z,22.00
2018-02-24T07:20:14.880Z,24.20
2018-02-24T07:22:41.808Z,24.73
2018-02-24T07:25:08.832Z,24.10
2018-02-24T07:27:35.029Z,24.50
2018-02-24T07:30:01.317Z,25.40
2018-02-24T07:32:28.247Z,19.07
2018-02-24T07:34:54.444Z,21.43
2018-02-24T07:37:20.664Z,23.20
2018-02-24T07:39:47.356Z,18.53
2018-02-24T07:42:14.320Z,26.73
2018-02-24T07:44:41.313Z,21.00
2018-02-24T07:47:07.544Z,27.20
2018-02-24T07:49:33.732Z,24.37
2018-02-24T07:51:59.949Z,19.30
2018-02-24T07:54:26.881Z,25.33
2018-02-24T07:56:53.844Z,23.13
2018-02-24T07:59:20.776Z,13.80
2018-02-24T08:01:47.734Z,15.03
2018-02-24T08:04:14.672Z,19.30
2018-02-24T08:06:41.629Z,17.50
2018-02-24T08:09:08.552Z,15.07
2018-02-24T08:11:35.564Z,28.83
2018-02-24T08:14:01.764Z,32.87
2018-02-24T08:16:27.985Z,20.33
2018-02-24T08:18:54.180Z,28.17
2018-02-24T08:21:20.445Z,14.63
2018-02-24T08:23:46.652Z,25.80
2018-02-24T08:26:13.781Z,30.97
2018-02-24T08:28:41.453Z,18.50
2018-02-24T08:31:07.652Z,24.37
2018-02-24T08:33:33.873Z,25.93
2018-02-24T08:36:00.069Z,22.83
2018-02-24T08:38:26.316Z,14.80
2018-02-24T08:40:52.503Z,26.63
2018-02-24T08:43:18.724Z,87.63
2018-02-24T08:45:44.921Z,143.97
2018-02-24T08:48:11.144Z,155.77
2018-02-24T08:50:37.334Z,25.00
2018-02-24T08:53:04.301Z,66.23
2018-02-24T08:55:30.483Z,40.53
2018-02-24T08:57:56.731Z,73.67
2018-02-24T09:00:23.672Z,57.60
2018-02-24T09:02:50.647Z,19.40
2018-02-24T09:05:20.762Z,19.93
2018-02-24T09:07:48.529Z,22.23
2018-02-24T09:10:15.536Z,15.60
2018-02-24T09:12:41.797Z,24.43
2018-02-24T09:15:07.995Z,24.73
2018-02-24T09:17:34.325Z,25.50
2018-02-24T09:20:01.314Z,17.00
2018-02-24T09:22:27.549Z,13.90
2018-02-24T09:24:53.745Z,14.83
2018-02-24T09:27:20.705Z,21.73
2018-02-24T09:29:47.655Z,14.73
2018-02-24T09:32:14.612Z,25.73
2018-02-24T09:34:40.800Z,17.70
2018-02-24T09:37:07.853Z,13.27
2018-02-24T09:39:34.044Z,15.27
2018-02-24T09:42:00.266Z,16.33
2018-02-24T09:44:26.492Z,22.93
2018-02-24T09:46:52.716Z,17.50
2018-02-24T09:49:18.916Z,16.90
2018-02-24T09:51:45.876Z,10.63
2018-02-24T09:54:12.066Z,8.37
2018-02-24T09:56:38.280Z,19.17
2018-02-24T09:59:04.467Z,16.53
2018-02-24T10:01:30.725Z,18.37
2018-02-24T10:03:56.916Z,27.50
2018-02-24T10:06:23.128Z,12.83
2018-02-24T10:08:50.056Z,21.83
2018-02-24T10:11:16.274Z,16.33
2018-02-24T10:13:42.501Z,12.80
2018-02-24T10:16:08.724Z,13.97
2018-02-24T10:18:34.917Z,23.07
2018-02-24T10:21:01.110Z,15.30
2018-02-24T10:23:28.076Z,13.93
2018-02-24T10:25:54.286Z,20.30
2018-02-24T10:28:21.248Z,12.50
2018-02-24T10:30:47.505Z,11.47
2018-02-24T10:33:13.724Z,12.43
2018-02-24T10:35:39.917Z,14.50
2018-02-24T10:38:06.880Z,9.67
2018-02-24T10:40:33.808Z,18.73
2018-02-24T10:43:00.025Z,10.20
2018-02-24T10:45:26.216Z,16.03
2018-02-24T10:47:52.436Z,9.03
2018-02-24T10:50:18.624Z,6.73
2018-02-24T10:52:45.589Z,9.87
2018-02-24T10:55:11.780Z,8.27
2018-02-24T10:57:37.993Z,8.87
2018-02-24T11:00:04.189Z,9.50
2018-02-24T11:02:30.408Z,17.33
2018-02-24T11:04:56.601Z,9.40
2018-02-24T11:07:22.885Z,4.57
2018-02-24T11:09:49.068Z,5.73
2018-02-24T11:12:15.313Z,5.57
2018-02-24T11:14:42.245Z,5.37
2018-02-24T11:17:09.265Z,2.67
2018-02-24T11:19:35.457Z,4.50
2018-02-24T11:22:01.648Z,68.17
2018-02-24T11:24:29.136Z,9.23
2018-02-24T11:26:55.317Z,7.40
2018-02-24T11:29:21.540Z,7.80
2018-02-24T11:31:47.750Z,5.43
2018-02-24T11:34:13.972Z,4.23
2018-02-24T11:36:40.167Z,12.70
2018-02-24T11:39:07.126Z,12.57
2018-02-24T11:41:33.316Z,6.93
2018-02-24T11:43:59.556Z,3.77
2018-02-24T11:46:26.492Z,4.70
2018-02-24T11:48:52.981Z,3.40
2018-02-24T11:51:19.168Z,4.73
2018-02-24T11:53:46.128Z,4.90
2018-02-24T11:56:13.066Z,7.50
2018-02-24T11:58:40.029Z,2.33
2018-02-24T12:01:06.208Z,4.93
2018-02-24T12:03:32.434Z,3.13
2018-02-24T12:05:58.625Z,3.50
2018-02-24T12:08:24.836Z,3.43
2018-02-24T12:10:51.760Z,8.13
2018-02-24T12:13:18.004Z,4.43
2018-02-24T12:15:44.938Z,3.67
2018-02-24T12:18:11.904Z,3.67
2018-02-24T12:20:38.088Z,6.73
2018-02-24T12:23:04.310Z,2.30
2018-02-24T12:25:30.496Z,1.87
2018-02-24T12:27:56.732Z,2.70
2018-02-24T12:30:22.916Z,2.40
2018-02-24T12:32:49.100Z,7.90
2018-02-24T12:35:15.318Z,3.03
2018-02-24T12:37:41.578Z,2.97
2018-02-24T12:40:07.800Z,3.37
2018-02-24T12:42:33.992Z,1.90
2018-02-24T12:45:00.212Z,37.53
2018-02-24T12:47:27.165Z,18.57
2018-02-24T12:49:53.400Z,4.27
2018-02-24T12:52:19.599Z,4.03
2018-02-24T12:54:45.903Z,3.73
2018-02-24T12:57:12.098Z,5.50
2018-02-24T12:59:38.312Z,6.70
2018-02-24T13:02:04.500Z,5.57
2018-02-24T13:04:30.821Z,4.27
2018-02-24T13:06:57.016Z,5.63
2018-02-24T13:09:23.232Z,2.63
2018-02-24T13:11:49.420Z,10.90
2018-02-24T13:14:15.680Z,3.90
2018-02-24T13:16:42.613Z,4.13
2018-02-24T13:19:09.572Z,3.13
2018-02-24T13:21:36.501Z,2.20
2018-02-24T13:24:02.756Z,4.53
2018-02-24T13:26:28.952Z,3.33
2018-02-24T13:28:55.600Z,5.60
2018-02-24T13:31:22.560Z,2.20
2018-02-24T13:33:49.533Z,4.50
2018-02-24T13:36:15.748Z,8.40
2018-02-24T13:38:41.956Z,5.23
2018-02-24T13:41:08.950Z,3.80
2018-02-24T13:43:35.203Z,4.47
2018-02-24T13:46:01.401Z,18.97
2018-02-24T13:48:27.596Z,6.20
2018-02-24T13:50:54.561Z,4.50
2018-02-24T13:53:20.768Z,11.00
2018-02-24T13:55:47.725Z,2.03
2018-02-24T13:58:13.920Z,2.33
2018-02-24T14:00:40.148Z,3.67
2018-02-24T14:03:06.372Z,2.27
2018-02-24T14:05:32.580Z,1.33
2018-02-24T14:07:58.759Z,1.33
2018-02-24T14:10:25.722Z,4.13
2018-02-24T14:12:51.913Z,2.67
2018-02-24T14:15:18.162Z,2.13
2018-02-24T14:17:45.091Z,7.10
2018-02-24T14:20:11.316Z,5.47
2018-02-24T14:22:37.510Z,4.40
2018-02-24T14:25:03.728Z,5.70
2018-02-24T14:27:29.941Z,11.33
2018-02-24T14:29:56.161Z,3.80
2018-02-24T14:32:22.384Z,3.07
2018-02-24T14:34:49.344Z,1.90
2018-02-24T14:37:15.531Z,4.17
2018-02-24T14:39:41.743Z,1.97
2018-02-24T14:42:07.993Z,5.83
2018-02-24T14:44:35.703Z,3.90
2018-02-24T14:47:01.892Z,1.97
2018-02-24T14:49:28.112Z,3.87
2018-02-24T14:51:54.368Z,4.40
2018-02-24T14:54:21.321Z,2.30
2018-02-24T14:56:47.512Z,1.63
2018-02-24T14:59:13.740Z,2.07
2018-02-24T15:01:39.928Z,2.20
2018-02-24T15:04:06.152Z,2.03
2018-02-24T15:06:32.369Z,4.33
2018-02-24T15:08:58.600Z,2.70
2018-02-24T15:11:24.785Z,1.13
2018-02-24T15:13:51.037Z,3.03
2018-02-24T15:16:17.977Z,1.67
2018-02-24T15:18:44.945Z,3.07
2018-02-24T15:21:11.152Z,3.73
2018-02-24T15:23:37.372Z,2.07
2018-02-24T15:26:05.096Z,3.23
2018-02-24T15:28:31.343Z,2.07
2018-02-24T15:30:57.536Z,4.87
2018-02-24T15:33:23.758Z,5.73
2018-02-24T15:35:49.970Z,4.70
2018-02-24T15:38:16.948Z,3.53
2018-02-24T15:40:43.141Z,2.30
2018-02-24T15:43:10.100Z,5.03
2018-02-24T15:45:37.028Z,2.57
2018-02-24T15:48:03.989Z,1.87
2018-02-24T15:50:30.925Z,2.43
2018-02-24T15:52:58.725Z,2.80
2018-02-24T15:55:24.912Z,14.37
2018-02-24T15:57:51.873Z,14.60
2018-02-24T16:00:18.804Z,5.53
2018-02-24T16:02:45.020Z,4.20
2018-02-24T16:05:11.317Z,4.60
2018-02-24T16:07:37.540Z,2.20
2018-02-24T16:10:03.720Z,14.77
2018-02-24T16:12:29.959Z,9.70
2018-02-24T16:14:56.924Z,3.07
2018-02-24T16:17:23.529Z,2.77
2018-02-24T16:19:49.711Z,4.00
2018-02-24T16:22:15.962Z,6.17
2018-02-24T16:24:42.152Z,3.83
2018-02-24T16:27:08.389Z,6.90
2018-02-24T16:29:34.577Z,14.60
2018-02-24T16:32:01.557Z,12.47
2018-02-24T16:34:27.744Z,8.73
2018-02-24T16:36:53.968Z,6.70
2018-02-24T16:39:20.156Z,6.03
2018-02-24T16:41:46.376Z,7.00
2018-02-24T16:44:12.569Z,6.90
2018-02-24T16:46:39.501Z,10.87
2018-02-24T16:49:05.953Z,4.03
2018-02-24T16:51:32.889Z,9.70
2018-02-24T16:53:59.112Z,7.50
2018-02-24T16:56:26.784Z,7.60
2018-02-24T16:58:53.740Z,8.00
2018-02-24T17:01:20.691Z,9.73
2018-02-24T17:03:46.925Z,5.17
2018-02-24T17:06:13.867Z,4.67
2018-02-24T17:08:40.836Z,3.90
2018-02-24T17:11:07.024Z,4.00
2018-02-24T17:13:33.276Z,12.30
2018-02-24T17:15:59.470Z,7.10
2018-02-24T17:18:25.725Z,3.20
2018-02-24T17:20:52.660Z,5.60
2018-02-24T17:23:19.624Z,4.07
2018-02-24T17:25:46.558Z,4.50
2018-02-24T17:28:13.521Z,2.77
2018-02-24T17:30:39.726Z,5.43
2018-02-24T17:33:06.704Z,4.97
2018-02-24T17:35:32.908Z,3.27
2018-02-24T17:37:59.883Z,3.87
2018-02-24T17:40:26.149Z,5.70
2018-02-24T17:42:52.372Z,5.70
2018-02-24T17:45:18.891Z,5.73
2018-02-24T17:47:45.107Z,2.43
2018-02-24T17:50:11.296Z,4.73
2018-02-24T17:52:37.508Z,6.70
2018-02-24T17:55:03.700Z,3.27
2018-02-24T17:57:29.917Z,5.90
2018-02-24T17:59:56.109Z,2.97
2018-02-24T18:02:22.329Z,3.27
2018-02-24T18:04:50.021Z,4.70
2018-02-24T18:07:16.245Z,7.20
2018-02-24T18:09:43.181Z,10.57
2018-02-24T18:12:10.202Z,6.20
2018-02-24T18:14:36.417Z,12.00
2018-02-24T18:17:02.636Z,16.10
2018-02-24T18:19:28.830Z,10.83
2018-02-24T18:21:55.797Z,9.33
2018-02-24T18:24:21.990Z,6.87
2018-02-24T18:26:48.240Z,4.83
2018-02-24T18:29:14.428Z,5.50
2018-02-24T18:31:42.148Z,8.90
2018-02-24T18:34:08.349Z,8.83
2018-02-24T18:36:35.300Z,5.83
2018-02-24T18:39:02.268Z,7.17
2018-02-24T18:41:28.508Z,4.27
2018-02-24T18:43:54.721Z,12.70
2018-02-24T18:46:20.976Z,5.97
2018-02-24T18:48:47.184Z,5.57
2018-02-24T18:51:13.454Z,4.17
2018-02-24T18:53:39.693Z,9.47
2018-02-24T18:56:06.701Z,3.07
2018-02-24T18:58:32.920Z,8.33
2018-02-24T19:00:59.103Z,4.90
2018-02-24T19:03:25.324Z,1.63
2018-02-24T19:05:52.292Z,13.07
2018-02-24T19:08:18.528Z,7.60
2018-02-24T19:10:45.480Z,5.53
2018-02-24T19:13:12.440Z,2.73
2018-02-24T19:15:38.661Z,4.63
2018-02-24T19:18:04.876Z,7.13
2018-02-24T19:20:31.829Z,8.50
2018-02-24T19:22:58.813Z,3.07
2018-02-24T19:25:25.020Z,7.70
2018-02-24T19:27:51.242Z,3.60
2018-02-24T19:30:17.441Z,3.47
2018-02-24T19:32:43.648Z,5.30
2018-02-24T19:35:09.833Z,6.33
2018-02-24T19:37:36.040Z,6.37
2018-02-24T19:40:02.970Z,7.47
2018-02-24T19:42:29.185Z,6.07
2018-02-24T19:44:55.376Z,7.67
2018-02-24T19:47:21.608Z,3.93
2018-02-24T19:49:47.792Z,8.23
2018-02-24T19:52:14.728Z,13.03
2018-02-24T19:54:40.944Z,6.80
2018-02-24T19:57:07.128Z,20.07
2018-02-24T19:59:33.376Z,4.20
2018-02-24T20:01:59.560Z,5.57
2018-02-24T20:04:26.535Z,2.73
2018-02-24T20:06:52.729Z,6.20
2018-02-24T20:09:19.684Z,4.33
2018-02-24T20:11:46.608Z,7.00
2018-02-24T20:14:12.865Z,6.10
2018-02-24T20:16:39.796Z,3.23
2018-02-24T20:19:06.787Z,4.27
2018-02-24T20:21:32.974Z,7.37
2018-02-24T20:23:59.972Z,6.80
2018-02-24T20:26:26.192Z,6.47
2018-02-24T20:28:52.624Z,2.70
2018-02-24T20:31:18.872Z,7.37
2018-02-24T20:33:45.067Z,6.87
2018-02-24T20:36:11.280Z,10.10
2018-02-24T20:38:38.218Z,5.97
2018-02-24T20:41:05.184Z,4.80
2018-02-24T20:43:31.368Z,3.80
2018-02-24T20:45:57.721Z,8.10
2018-02-24T20:48:24.656Z,5.37
2018-02-24T20:50:52.358Z,7.73
2018-02-24T20:53:18.550Z,6.47
2018-02-24T20:55:45.528Z,7.63
2018-02-24T20:58:11.795Z,9.17
2018-02-24T21:00:38.016Z,5.53
2018-02-24T21:03:04.203Z,4.17
2018-02-24T21:05:31.412Z,3.60
2018-02-24T21:07:57.609Z,3.80
2018-02-24T21:10:23.866Z,7.83
2018-02-24T21:12:50.083Z,4.33
2018-02-24T21:15:16.540Z,5.63
2018-02-24T21:17:42.732Z,7.97
2018-02-24T21:20:08.932Z,9.53
2018-02-24T21:22:35.893Z,5.30
2018-02-24T21:25:02.108Z,3.73
2018-02-24T21:27:29.043Z,17.17
2018-02-24T21:29:56.001Z,5.33
2018-02-24T21:32:22.932Z,3.10
2018-02-24T21:34:49.172Z,6.47
2018-02-24T21:37:16.096Z,6.40
2018-02-24T21:39:42.279Z,6.80
2018-02-24T21:42:08.493Z,2.30
2018-02-24T21:44:34.681Z,5.10
2018-02-24T21:47:00.973Z,8.13
2018-02-24T21:49:27.155Z,7.00
2018-02-24T21:51:54.240Z,8.23
2018-02-24T21:54:20.428Z,10.43
2018-02-24T21:56:46.669Z,6.23
2018-02-24T21:59:13.596Z,5.67
2018-02-24T22:01:39.812Z,10.37
2018-02-24T22:04:06.084Z,4.23
2018-02-24T22:06:32.305Z,4.57
2018-02-24T22:08:59.310Z,4.13
2018-02-24T22:11:25.528Z,6.90
2018-02-24T22:13:51.716Z,4.47
2018-02-24T22:16:18.049Z,5.80
2018-02-24T22:18:44.244Z,5.00
2018-02-24T22:21:11.196Z,10.53
2018-02-24T22:23:37.424Z,7.07
2018-02-24T22:26:03.696Z,2.53
2018-02-24T22:28:29.916Z,5.47
2018-02-24T22:30:56.141Z,7.90
2018-02-24T22:33:22.375Z,2.63
2018-02-24T22:35:48.575Z,4.77
2018-02-24T22:38:14.788Z,2.90
2018-02-24T22:40:40.980Z,5.67
2018-02-24T22:43:07.205Z,3.33
2018-02-24T22:45:33.397Z,5.03
2018-02-24T22:48:06.522Z,9.60
2018-02-24T22:50:32.716Z,13.40
2018-02-24T22:52:59.696Z,4.30
2018-02-24T22:55:25.888Z,9.60
2018-02-24T22:57:52.820Z,8.33
2018-02-24T23:00:19.080Z,5.37
2018-02-24T23:02:46.015Z,6.90
2018-02-24T23:05:12.980Z,9.50
2018-02-24T23:07:39.172Z,10.37
2018-02-24T23:10:05.394Z,12.80
2018-02-24T23:12:31.585Z,10.17
2018-02-24T23:14:57.831Z,16.93
2018-02-24T23:17:24.020Z,29.07
2018-02-24T23:19:50.241Z,14.50
2018-02-24T23:22:17.172Z,10.30
2018-02-24T23:24:44.133Z,14.67
2018-02-24T23:27:11.065Z,6.67
2018-02-24T23:29:38.020Z,7.30
2018-02-24T23:32:04.948Z,6.30
2018-02-24T23:34:31.180Z,12.30
2018-02-24T23:36:57.373Z,15.27
2018-02-24T23:39:23.613Z,8.20
2018-02-24T23:41:49.825Z,11.47
2018-02-24T23:44:23.189Z,8.37
2018-02-24T23:46:49.386Z,5.87
2018-02-24T23:49:15.629Z,13.37
2018-02-24T23:51:42.560Z,15.90
2018-02-24T23:54:10.229Z,12.10
2018-02-24T23:56:37.196Z,16.73
2018-02-24T23:59:04.125Z,9.97
